createdAt,value
2023-03-20T00:02:25.023Z,12.10
2023-03-20T00:04:53.810Z,12.03
2023-03-20T00:07:23.525Z,12.02
2023-03-20T00:09:51.942Z,12.01
2023-03-20T00:12:26.175Z,11.99
2023-03-20T00:14:54.843Z,11.97
2023-03-20T00:17:23.257Z,11.96
2023-03-20T00:19:51.611Z,11.97
2023-03-20T00:22:20.076Z,12.01
2023-03-20T00:24:49.807Z,12.02
2023-03-20T00:27:19.177Z,11.96
2023-03-20T00:29:47.721Z,11.95
2023-03-20T00:32:16.531Z,11.94
2023-03-20T00:34:45.256Z,11.93
2023-03-20T00:37:13.775Z,11.88
2023-03-20T00:39:42.546Z,11.81
2023-03-20T00:42:21.712Z,11.75
2023-03-20T00:44:53.956Z,11.68
2023-03-20T00:47:24.594Z,11.62
2023-03-20T00:49:54.592Z,11.55
2023-03-20T00:52:24.092Z,11.57
2023-03-20T00:54:52.600Z,11.60
2023-03-20T00:57:25.497Z,11.60
2023-03-20T00:59:58.843Z,11.59
2023-03-20T01:02:28.929Z,11.61
2023-03-20T01:04:58.414Z,11.56
2023-03-20T01:07:27.832Z,11.52
2023-03-20T01:09:56.281Z,11.50
2023-03-20T01:12:26.589Z,11.52
2023-03-20T01:14:56.977Z,11.54
2023-03-20T01:17:27.492Z,11.54
2023-03-20T01:19:56.583Z,11.52
2023-03-20T01:22:24.962Z,11.52
2023-03-20T01:24:53.339Z,11.54
2023-03-20T01:27:22.420Z,11.55
2023-03-20T01:29:52.148Z,11.53
2023-03-20T01:32:21.371Z,11.50
2023-03-20T01:34:49.775Z,11.50
2023-03-20T01:37:22.213Z,11.51
2023-03-20T01:39:50.665Z,11.50
2023-03-20T01:42:19.322Z,11.45
2023-03-20T01:44:48.581Z,11.45
2023-03-20T01:47:21.083Z,11.45
2023-03-20T01:50:19.208Z,11.46
2023-03-20T01:52:51.420Z,11.45
2023-03-20T01:55:21.925Z,11.46
2023-03-20T01:57:53.838Z,11.48
2023-03-20T02:00:26.326Z,11.50
2023-03-20T02:02:57.582Z,11.53
2023-03-20T02:05:26.542Z,11.54
2023-03-20T02:08:11.103Z,11.53
2023-03-20T02:10:40.780Z,11.51
2023-03-20T02:13:11.002Z,11.49
2023-03-20T02:15:56.667Z,11.50
2023-03-20T02:18:26.977Z,11.48
2023-03-20T02:21:37.140Z,11.47
2023-03-20T02:24:47.407Z,11.51
2023-03-20T02:27:24.775Z,11.49
2023-03-20T02:30:31.241Z,11.47
2023-03-20T02:33:46.690Z,11.47
2023-03-20T02:36:53.662Z,11.41
2023-03-20T02:39:38.081Z,11.37
2023-03-20T02:42:17.230Z,11.31
2023-03-20T02:44:54.398Z,11.33
2023-03-20T02:47:28.635Z,11.30
2023-03-20T02:50:11.049Z,11.24
2023-03-20T02:52:47.505Z,11.19
2023-03-20T02:55:25.192Z,11.19
2023-03-20T02:58:00.658Z,11.21
2023-03-20T03:00:35.554Z,11.23
2023-03-20T03:03:11.040Z,11.23
2023-03-20T03:05:45.028Z,11.19
2023-03-20T03:08:15.886Z,11.17
2023-03-20T03:10:50.488Z,11.20
2023-03-20T03:13:24.228Z,11.19
2023-03-20T03:15:56.576Z,11.19
2023-03-20T03:18:27.705Z,11.16
2023-03-20T03:20:59.283Z,11.14
2023-03-20T03:23:32.582Z,11.13
2023-03-20T03:26:06.740Z,11.13
2023-03-20T03:28:40.126Z,11.10
2023-03-20T03:31:13.601Z,11.09
2023-03-20T03:33:45.803Z,11.07
2023-03-20T03:36:24.179Z,11.04
2023-03-20T03:38:59.226Z,11.00
2023-03-20T03:41:33.568Z,10.96
2023-03-20T03:44:09.750Z,10.92
2023-03-20T03:46:44.989Z,10.89
2023-03-20T03:49:20.273Z,10.89
2023-03-20T03:51:52.998Z,10.87
2023-03-20T03:54:26.146Z,10.86
2023-03-20T03:56:58.673Z,10.87
2023-03-20T03:59:33.712Z,10.89
2023-03-20T04:02:05.302Z,10.90
2023-03-20T04:04:35.397Z,10.89
2023-03-20T04:07:04.064Z,10.88
2023-03-20T04:09:33.600Z,10.91
2023-03-20T04:12:03.779Z,10.94
2023-03-20T04:14:32.247Z,10.97
2023-03-20T04:17:00.655Z,10.93
2023-03-20T04:19:29.105Z,10.81
2023-03-20T04:21:57.449Z,10.83
2023-03-20T04:24:26.513Z,10.91
2023-03-20T04:26:54.941Z,10.93
2023-03-20T04:29:24.636Z,10.90
2023-03-20T04:31:53.066Z,10.93
2023-03-20T04:34:21.558Z,10.92
2023-03-20T04:36:50.272Z,10.95
2023-03-20T04:39:20.589Z,10.97
2023-03-20T04:41:49.066Z,10.98
2023-03-20T04:44:17.474Z,10.95
2023-03-20T04:46:47.246Z,10.92
2023-03-20T04:49:15.879Z,10.91
2023-03-20T04:51:44.270Z,10.93
2023-03-20T04:54:12.568Z,10.93
2023-03-20T04:56:41.018Z,10.95
2023-03-20T04:59:09.411Z,10.96
2023-03-20T05:01:38.113Z,10.95
2023-03-20T05:04:08.118Z,10.93
2023-03-20T05:06:37.092Z,10.93
2023-03-20T05:09:05.606Z,10.92
2023-03-20T05:11:34.107Z,10.92
2023-03-20T05:14:02.509Z,10.87
2023-03-20T05:16:31.120Z,10.85
2023-03-20T05:18:59.993Z,10.82
2023-03-20T05:21:29.739Z,10.79
2023-03-20T05:23:58.082Z,10.76
2023-03-20T05:26:26.467Z,10.74
2023-03-20T05:28:54.833Z,10.72
2023-03-20T05:31:23.537Z,10.73
2023-03-20T05:33:51.972Z,10.72
2023-03-20T05:36:20.515Z,10.68
2023-03-20T05:38:50.312Z,10.67
2023-03-20T05:41:18.733Z,10.65
2023-03-20T05:43:47.165Z,10.65
2023-03-20T05:46:15.629Z,10.65
2023-03-20T05:48:44.358Z,10.64
2023-03-20T05:51:12.737Z,10.65
2023-03-20T05:53:41.153Z,10.67
2023-03-20T05:56:11.172Z,10.70
2023-03-20T05:58:39.766Z,10.73
2023-03-20T06:01:08.390Z,10.76
2023-03-20T06:03:37.009Z,10.77
2023-03-20T06:06:06.220Z,10.77
2023-03-20T06:08:36.405Z,10.78
2023-03-20T06:11:05.181Z,10.80
2023-03-20T06:13:34.928Z,10.80
2023-03-20T06:16:03.482Z,10.82
2023-03-20T06:18:32.083Z,10.82
2023-03-20T06:21:02.040Z,10.79
2023-03-20T06:23:30.529Z,10.80
2023-03-20T06:25:58.889Z,10.83
2023-03-20T06:28:27.251Z,10.88
2023-03-20T06:30:57.370Z,10.88
2023-03-20T06:33:26.046Z,10.88
2023-03-20T06:35:54.727Z,10.90
2023-03-20T06:38:23.211Z,10.94
2023-03-20T06:40:51.735Z,10.92
2023-03-20T06:43:20.201Z,10.91
2023-03-20T06:45:48.608Z,10.92
2023-03-20T06:48:22.164Z,10.92
2023-03-20T06:50:51.300Z,10.90
2023-03-20T06:53:19.864Z,10.84
2023-03-20T06:55:49.422Z,10.86
2023-03-20T06:58:18.156Z,10.82
2023-03-20T07:00:47.543Z,10.84
2023-03-20T07:03:16.766Z,10.87
2023-03-20T07:05:46.706Z,10.88
2023-03-20T07:08:15.153Z,10.89
2023-03-20T07:10:43.583Z,10.89
2023-03-20T07:13:12.171Z,10.89
2023-03-20T07:15:50.664Z,10.92
2023-03-20T07:18:26.435Z,10.99
2023-03-20T07:21:01.805Z,11.03
2023-03-20T07:23:30.760Z,11.06
2023-03-20T07:25:59.432Z,11.02
2023-03-20T07:28:28.082Z,11.06
2023-03-20T07:31:00.488Z,11.08
2023-03-20T07:33:30.417Z,11.12
2023-03-20T07:36:00.385Z,11.14
2023-03-20T07:38:28.871Z,11.16
2023-03-20T07:40:57.265Z,11.18
2023-03-20T07:43:25.726Z,11.21
2023-03-20T07:45:54.112Z,11.27
2023-03-20T07:48:22.497Z,11.30
2023-03-20T07:50:50.980Z,11.32
2023-03-20T07:53:20.706Z,11.32
2023-03-20T07:55:49.183Z,11.34
2023-03-20T07:58:17.564Z,11.37
2023-03-20T08:00:46.057Z,11.39
2023-03-20T08:03:14.581Z,11.43
2023-03-20T08:05:45.162Z,11.47
2023-03-20T08:08:15.428Z,11.48
2023-03-20T08:10:45.385Z,11.51
2023-03-20T08:13:13.771Z,11.55
2023-03-20T08:15:42.166Z,11.53
2023-03-20T08:18:10.780Z,11.54
2023-03-20T08:20:39.165Z,11.52
2023-03-20T08:23:07.898Z,11.49
2023-03-20T08:25:36.495Z,11.52
2023-03-20T08:28:06.367Z,11.54
2023-03-20T08:30:34.797Z,11.47
2023-03-20T08:33:03.280Z,11.41
2023-03-20T08:35:33.647Z,11.40
2023-03-20T08:38:03.450Z,11.45
2023-03-20T08:40:32.363Z,11.43
2023-03-20T08:43:00.951Z,11.48
2023-03-20T08:45:30.772Z,11.49
2023-03-20T08:47:59.226Z,11.46
2023-03-20T08:50:27.709Z,11.41
2023-03-20T08:52:56.500Z,11.41
2023-03-20T08:55:24.953Z,11.42
2023-03-20T08:57:54.525Z,11.43
2023-03-20T09:00:23.785Z,11.50
2023-03-20T09:02:53.715Z,11.59
2023-03-20T09:05:22.176Z,11.69
2023-03-20T09:07:51.535Z,11.79
2023-03-20T09:10:20.088Z,11.87
2023-03-20T09:12:48.469Z,11.90
2023-03-20T09:15:16.905Z,11.95
2023-03-20T09:17:45.391Z,12.00
2023-03-20T09:20:15.284Z,12.07
2023-03-20T09:22:49.876Z,12.12
2023-03-20T09:25:18.295Z,12.23
2023-03-20T09:27:46.858Z,12.31
2023-03-20T09:30:15.738Z,12.34
2023-03-20T09:32:44.349Z,12.38
2023-03-20T09:35:12.845Z,12.38
2023-03-20T09:37:42.680Z,12.35
2023-03-20T09:40:25.584Z,12.35
2023-03-20T09:43:02.560Z,12.41
2023-03-20T09:45:42.944Z,12.49
2023-03-20T09:48:22.587Z,12.54
2023-03-20T09:51:00.357Z,12.57
2023-03-20T09:53:35.889Z,12.65
2023-03-20T09:56:06.031Z,12.73
2023-03-20T09:58:37.062Z,12.85
2023-03-20T10:01:08.252Z,13.02
2023-03-20T10:03:44.021Z,13.22
2023-03-20T10:06:14.905Z,13.38
2023-03-20T10:08:46.422Z,13.57
2023-03-20T10:11:34.666Z,13.76
2023-03-20T10:14:22.564Z,13.93
2023-03-20T10:17:05.381Z,14.01
2023-03-20T10:19:38.141Z,13.95
2023-03-20T10:22:16.167Z,13.85
2023-03-20T10:24:50.965Z,13.90
2023-03-20T10:27:26.250Z,13.96
2023-03-20T10:30:12.548Z,13.91
2023-03-20T10:32:50.679Z,13.74
2023-03-20T10:35:24.834Z,13.77
2023-03-20T10:38:07.516Z,13.82
2023-03-20T10:40:39.536Z,13.93
2023-03-20T10:43:16.555Z,14.03
2023-03-20T10:45:49.030Z,13.97
2023-03-20T10:48:24.651Z,13.92
2023-03-20T10:50:56.205Z,13.86
2023-03-20T10:53:33.293Z,13.71
2023-03-20T10:56:07.162Z,13.63
2023-03-20T10:58:40.522Z,13.54
2023-03-20T11:01:09.271Z,13.53
2023-03-20T11:03:39.927Z,13.53
2023-03-20T11:06:18.223Z,13.53
2023-03-20T11:08:50.963Z,13.56
2023-03-20T11:11:35.792Z,13.57
2023-03-20T11:14:18.697Z,13.53
2023-03-20T11:16:51.513Z,13.56
2023-03-20T11:19:22.073Z,13.63
2023-03-20T11:21:52.794Z,13.68
2023-03-20T11:24:28.313Z,13.71
2023-03-20T11:27:07.492Z,13.77
2023-03-20T11:29:36.551Z,13.79
2023-03-20T11:32:08.202Z,13.82
2023-03-20T11:34:41.064Z,13.81
2023-03-20T11:37:23.613Z,13.84
2023-03-20T11:39:58.475Z,13.84
2023-03-20T11:42:30.485Z,13.84
2023-03-20T11:45:05.623Z,13.88
2023-03-20T11:47:36.592Z,13.86
2023-03-20T11:50:07.219Z,13.81
2023-03-20T11:52:38.428Z,13.79
2023-03-20T11:55:23.510Z,13.67
2023-03-20T11:57:57.993Z,13.57
2023-03-20T12:00:30.754Z,13.53
2023-03-20T12:02:59.276Z,13.51
2023-03-20T12:05:34.038Z,13.50
2023-03-20T12:08:07.157Z,13.50
2023-03-20T12:10:40.365Z,13.46
2023-03-20T12:13:18.228Z,13.44
2023-03-20T12:15:49.186Z,13.47
2023-03-20T12:18:33.066Z,13.53
2023-03-20T12:21:08.986Z,13.53
2023-03-20T12:23:41.906Z,13.48
2023-03-20T12:26:14.950Z,13.46
2023-03-20T12:28:52.838Z,13.49
2023-03-20T12:31:26.951Z,13.56
2023-03-20T12:34:01.224Z,13.51
2023-03-20T12:36:33.891Z,13.50
2023-03-20T12:39:05.016Z,13.49
2023-03-20T12:41:42.470Z,13.51
2023-03-20T12:44:36.934Z,13.53
2023-03-20T12:47:23.699Z,13.56
2023-03-20T12:50:01.236Z,13.57
2023-03-20T12:52:38.711Z,13.58
2023-03-20T12:55:17.285Z,13.56
2023-03-20T12:57:57.215Z,13.53
2023-03-20T13:00:37.324Z,13.52
2023-03-20T13:03:29.130Z,13.51
2023-03-20T13:06:10.110Z,13.50
2023-03-20T13:09:13.571Z,13.52
2023-03-20T13:11:48.103Z,13.54
2023-03-20T13:14:22.683Z,13.55
2023-03-20T13:16:59.638Z,13.54
2023-03-20T13:19:35.237Z,13.55
2023-03-20T13:22:08.129Z,13.59
2023-03-20T13:24:42.246Z,13.66
2023-03-20T13:27:24.822Z,13.69
2023-03-20T13:30:00.175Z,13.75
2023-03-20T13:32:42.162Z,13.77
2023-03-20T13:35:28.506Z,13.82
2023-03-20T13:38:06.963Z,13.82
2023-03-20T13:40:41.080Z,13.85
2023-03-20T13:43:21.927Z,13.84
2023-03-20T13:45:52.331Z,13.86
2023-03-20T13:48:30.224Z,13.88
2023-03-20T13:51:06.775Z,13.88
2023-03-20T13:53:46.133Z,13.88
2023-03-20T13:56:23.573Z,13.89
2023-03-20T13:59:03.860Z,13.90
2023-03-20T14:01:42.415Z,13.91
2023-03-20T14:04:17.256Z,13.88
2023-03-20T14:06:51.370Z,13.86
2023-03-20T14:09:33.672Z,13.83
2023-03-20T14:12:05.722Z,13.82
2023-03-20T14:14:42.169Z,13.81
2023-03-20T14:17:18.213Z,13.81
2023-03-20T14:19:50.551Z,13.83
2023-03-20T14:22:21.649Z,13.87
2023-03-20T14:25:00.113Z,13.86
2023-03-20T14:27:44.042Z,13.86
2023-03-20T14:30:44.139Z,13.88
2023-03-20T14:33:32.369Z,13.92
2023-03-20T14:36:21.863Z,13.93
2023-03-20T14:39:15.916Z,13.93
2023-03-20T14:41:59.783Z,13.98
2023-03-20T14:44:39.745Z,14.01
2023-03-20T14:47:21.940Z,14.06
2023-03-20T14:49:55.348Z,14.12
2023-03-20T14:52:52.574Z,14.13
2023-03-20T14:55:49.270Z,14.13
2023-03-20T14:58:49.361Z,14.16
2023-03-20T15:01:25.269Z,14.21
2023-03-20T15:03:57.595Z,14.24
2023-03-20T15:06:28.006Z,14.27
2023-03-20T15:09:06.846Z,14.29
2023-03-20T15:11:36.167Z,14.24
2023-03-20T15:14:07.931Z,14.21
2023-03-20T15:16:38.118Z,14.26
2023-03-20T15:19:16.486Z,14.40
2023-03-20T15:21:48.025Z,14.61
2023-03-20T15:24:23.089Z,14.73
2023-03-20T15:26:57.097Z,14.82
2023-03-20T15:29:25.976Z,14.89
2023-03-20T15:32:12.822Z,15.01
2023-03-20T15:34:44.170Z,15.04
2023-03-20T15:37:16.471Z,14.95
2023-03-20T15:39:48.524Z,14.75
2023-03-20T15:42:20.426Z,14.62
2023-03-20T15:44:51.987Z,14.60
2023-03-20T15:47:22.376Z,14.63
2023-03-20T15:49:53.738Z,14.71
2023-03-20T15:52:28.730Z,14.79
2023-03-20T15:55:00.735Z,14.82
2023-03-20T15:57:35.926Z,14.85
2023-03-20T16:00:06.778Z,14.86
2023-03-20T16:02:37.465Z,14.81
2023-03-20T16:05:10.303Z,14.72
2023-03-20T16:07:40.725Z,14.61
2023-03-20T16:10:18.581Z,14.49
2023-03-20T16:12:49.471Z,14.42
2023-03-20T16:15:31.864Z,14.36
2023-03-20T16:18:02.315Z,14.30
2023-03-20T16:20:35.701Z,14.26
2023-03-20T16:23:08.402Z,14.21
2023-03-20T16:25:39.138Z,14.16
2023-03-20T16:28:08.125Z,14.11
2023-03-20T16:30:37.158Z,14.05
2023-03-20T16:33:10.583Z,14.01
2023-03-20T16:35:41.297Z,13.94
2023-03-20T16:38:18.234Z,13.88
2023-03-20T16:40:49.612Z,13.86
2023-03-20T16:43:20.498Z,13.82
2023-03-20T16:45:54.636Z,13.77
2023-03-20T16:48:31.392Z,13.72
2023-03-20T16:51:04.158Z,13.69
2023-03-20T16:53:39.026Z,13.64
2023-03-20T16:56:13.478Z,13.60
2023-03-20T16:58:44.329Z,13.55
2023-03-20T17:01:17.566Z,13.50
2023-03-20T17:03:50.041Z,13.44
2023-03-20T17:06:35.863Z,13.38
2023-03-20T17:09:22.199Z,13.27
2023-03-20T17:11:58.174Z,13.20
2023-03-20T17:14:27.095Z,13.12
2023-03-20T17:16:57.768Z,13.03
2023-03-20T17:19:26.253Z,12.97
2023-03-20T17:21:54.999Z,12.92
2023-03-20T17:24:23.352Z,12.85
2023-03-20T17:26:55.928Z,12.77
2023-03-20T17:29:24.393Z,12.69
2023-03-20T17:31:52.930Z,12.65
2023-03-20T17:34:21.546Z,12.56
2023-03-20T17:36:50.149Z,12.42
2023-03-20T17:39:20.979Z,12.32
2023-03-20T17:41:49.575Z,12.25
2023-03-20T17:44:19.683Z,12.19
2023-03-20T17:46:57.742Z,12.17
2023-03-20T17:49:28.249Z,12.14
2023-03-20T17:52:00.470Z,12.11
2023-03-20T17:54:28.998Z,12.08
2023-03-20T17:56:58.611Z,12.06
2023-03-20T17:59:31.135Z,12.04
2023-03-20T18:01:59.998Z,11.98
2023-03-20T18:04:28.419Z,11.92
2023-03-20T18:06:56.815Z,11.85
2023-03-20T18:09:25.878Z,11.73
2023-03-20T18:11:54.376Z,11.72
2023-03-20T18:14:22.795Z,11.71
2023-03-20T18:16:52.558Z,11.68
2023-03-20T18:19:24.572Z,11.70
2023-03-20T18:21:53.116Z,11.70
2023-03-20T18:24:22.070Z,11.72
2023-03-20T18:26:51.283Z,11.72
2023-03-20T18:29:20.640Z,11.71
2023-03-20T18:31:49.181Z,11.70
2023-03-20T18:34:19.038Z,11.63
2023-03-20T18:36:47.532Z,11.56
2023-03-20T18:39:20.833Z,11.53
2023-03-20T18:41:49.212Z,11.51
2023-03-20T18:44:18.082Z,11.48
2023-03-20T18:46:46.611Z,11.43
2023-03-20T18:49:17.232Z,11.40
2023-03-20T18:51:47.734Z,11.30
2023-03-20T18:54:16.553Z,11.16
2023-03-20T18:56:44.985Z,11.07
2023-03-20T18:59:14.278Z,10.98
2023-03-20T19:01:42.795Z,10.91
2023-03-20T19:04:11.387Z,10.92
2023-03-20T19:06:39.820Z,10.93
2023-03-20T19:09:12.646Z,10.92
2023-03-20T19:11:41.082Z,10.96
2023-03-20T19:14:09.458Z,10.94
2023-03-20T19:16:38.516Z,10.93
2023-03-20T19:19:08.849Z,10.95
2023-03-20T19:21:37.240Z,10.98
2023-03-20T19:24:07.557Z,10.98
2023-03-20T19:26:38.698Z,10.98
2023-03-20T19:29:09.074Z,11.01
2023-03-20T19:31:37.998Z,11.01
2023-03-20T19:34:06.907Z,10.98
2023-03-20T19:36:38.090Z,10.96
2023-03-20T19:39:08.826Z,10.95
2023-03-20T19:41:38.712Z,10.92
2023-03-20T19:44:07.253Z,10.93
2023-03-20T19:46:40.214Z,10.95
2023-03-20T19:49:18.359Z,10.93
2023-03-20T19:51:48.093Z,10.94
2023-03-20T19:54:19.609Z,10.94
2023-03-20T19:56:49.534Z,10.90
2023-03-20T19:59:17.899Z,10.90
2023-03-20T20:01:47.258Z,10.92
2023-03-20T20:04:16.756Z,10.94
2023-03-20T20:06:47.331Z,10.99
2023-03-20T20:09:16.660Z,11.01
2023-03-20T20:11:46.178Z,11.03
2023-03-20T20:14:15.963Z,11.01
2023-03-20T20:16:45.909Z,10.97
2023-03-20T20:19:14.670Z,10.90
2023-03-20T20:24:32.001Z,10.84
2023-03-20T20:27:15.748Z,10.89
2023-03-20T20:29:48.124Z,10.93
2023-03-20T20:32:17.260Z,10.92
2023-03-20T20:35:35.012Z,10.98
2023-03-20T20:38:25.183Z,10.99
2023-03-20T20:40:26.683Z,10.96
2023-03-20T20:43:01.449Z,10.93
2023-03-20T20:45:32.612Z,10.93
2023-03-20T20:48:01.572Z,10.96
2023-03-20T20:50:32.964Z,10.93
2023-03-20T20:53:03.654Z,10.89
2023-03-20T20:55:32.194Z,10.83
2023-03-20T20:58:01.368Z,10.74
2023-03-20T21:00:45.754Z,10.69
2023-03-20T21:03:16.291Z,10.62
2023-03-20T21:05:44.731Z,10.60
2023-03-20T21:08:14.134Z,10.58
2023-03-20T21:10:44.999Z,10.58
2023-03-20T21:13:13.546Z,10.57
2023-03-20T21:15:43.848Z,10.61
2023-03-20T21:18:12.400Z,10.60
2023-03-20T21:20:41.029Z,10.61
2023-03-20T21:23:09.393Z,10.62
2023-03-20T21:25:40.953Z,10.62
2023-03-20T21:28:10.467Z,10.62
2023-03-20T21:30:49.910Z,10.61
2023-03-20T21:33:31.661Z,10.59
2023-03-20T21:36:00.638Z,10.60
2023-03-20T21:39:02.051Z,10.54
2023-03-20T21:41:18.155Z,10.51
2023-03-20T21:43:47.326Z,10.47
2023-03-20T21:49:58.471Z,10.51
2023-03-20T22:03:28.807Z,10.51
2023-03-20T22:12:20.375Z,10.50
2023-03-20T22:17:56.113Z,10.49
2023-03-20T22:32:18.619Z,10.37
2023-03-20T22:43:00.107Z,10.41
2023-03-20T22:45:42.632Z,10.38
2023-03-20T22:48:15.742Z,10.31
2023-03-20T22:50:44.233Z,10.31
2023-03-20T22:53:12.577Z,10.27
2023-03-20T22:55:45.595Z,10.24
2023-03-20T22:58:15.143Z,10.19
2023-03-20T23:00:44.083Z,10.15
2023-03-20T23:03:29.523Z,10.11
2023-03-20T23:06:07.432Z,10.09
2023-03-20T23:08:48.745Z,10.04
2023-03-20T23:11:20.674Z,10.01
2023-03-20T23:13:49.336Z,9.98
2023-03-20T23:16:17.730Z,9.99
2023-03-20T23:18:46.141Z,9.99
2023-03-20T23:21:14.556Z,10.01
2023-03-20T23:23:42.993Z,10.00
2023-03-20T23:26:13.812Z,9.98
2023-03-20T23:28:46.256Z,10.00
2023-03-20T23:31:17.907Z,9.98
2023-03-20T23:33:50.415Z,9.98
2023-03-20T23:36:35.009Z,9.95
2023-03-20T23:39:04.463Z,9.95
2023-03-20T23:41:57.970Z,9.98
2023-03-20T23:44:22.602Z,10.00
2023-03-20T23:46:51.047Z,10.01
2023-03-20T23:49:19.610Z,10.02
2023-03-20T23:51:48.083Z,10.03
2023-03-20T23:54:16.534Z,10.02
2023-03-20T23:56:44.896Z,9.99
2023-03-20T23:59:22.032Z,9.96
